Time;durP1;ratioP1;P1;durP2;ratioP2;P2;SDS_P1;SDS_P2;PMS_P1;PMS_P2;Temp;Humidity;BMP_temperature;BMP_pressure;BME280_temperature;BME280_humidity;BME280_pressure;Samples;Min_cycle;Max_cycle;Signal;HPM_P1;HPM_P2
2021/11/11 00:00:14;;;;;;;5.67;2.33;;;13.00;99.90;;;;;;5108229;28;20456;-68
2021/11/11 00:02:47;;;;;;;2.17;1.70;;;13.00;99.90;;;;;;5107708;28;20536;-68
2021/11/11 00:05:18;;;;;;;2.17;1.90;;;12.90;99.90;;;;;;5099854;28;20978;-68
2021/11/11 00:07:49;;;;;;;2.07;1.80;;;12.90;99.90;;;;;;5092555;28;20537;-70
2021/11/11 00:10:21;;;;;;;3.80;2.23;;;12.80;99.90;;;;;;5098509;28;20544;-69
2021/11/11 00:12:53;;;;;;;6.07;2.70;;;12.70;99.90;;;;;;5092237;28;20450;-68
2021/11/11 00:15:24;;;;;;;3.80;2.07;;;12.60;99.90;;;;;;5098195;28;20457;-69
2021/11/11 00:17:57;;;;;;;4.17;2.20;;;12.50;99.90;;;;;;5091576;28;20497;-69
2021/11/11 00:20:29;;;;;;;4.03;2.40;;;12.40;99.90;;;;;;5100807;28;20461;-69
2021/11/11 00:23:01;;;;;;;4.00;2.53;;;12.40;99.90;;;;;;5105046;28;20451;-69
2021/11/11 00:25:32;;;;;;;4.27;2.90;;;12.40;99.90;;;;;;5103636;28;20449;-69
2021/11/11 00:28:02;;;;;;;3.00;2.63;;;12.40;99.90;;;;;;5100080;28;20453;-69
2021/11/11 00:30:33;;;;;;;3.93;3.10;;;12.30;99.90;;;;;;5094157;28;20469;-68
2021/11/11 00:33:06;;;;;;;4.17;2.57;;;12.30;99.90;;;;;;5092752;28;20462;-68
2021/11/11 00:35:37;;;;;;;5.30;3.57;;;12.30;99.90;;;;;;5106911;28;20443;-68
2021/11/11 00:38:08;;;;;;;6.53;3.87;;;12.30;99.90;;;;;;5101699;28;20476;-68
2021/11/11 00:40:38;;;;;;;7.83;4.03;;;12.20;99.90;;;;;;5099668;28;20552;-68
2021/11/11 00:43:09;;;;;;;4.27;3.87;;;12.20;99.90;;;;;;5105699;28;20457;-69
2021/11/11 00:45:40;;;;;;;6.53;4.50;;;12.30;99.90;;;;;;5099698;28;20958;-68
2021/11/11 00:48:13;;;;;;;6.07;5.47;;;12.20;99.90;;;;;;5101065;28;20568;-69
2021/11/11 00:50:44;;;;;;;8.40;5.20;;;12.20;99.90;;;;;;5094606;28;20457;-69
2021/11/11 00:53:15;;;;;;;6.13;4.87;;;12.20;99.90;;;;;;5101461;28;20449;-69
2021/11/11 00:55:46;;;;;;;6.80;5.37;;;12.10;99.90;;;;;;5102702;28;20823;-69
2021/11/11 00:58:17;;;;;;;7.10;5.47;;;12.00;99.90;;;;;;5101893;28;20765;-70
2021/11/11 01:00:48;;;;;;;7.10;5.77;;;12.00;99.90;;;;;;5111992;28;20457;-69
2021/11/11 01:03:25;;;;;;;7.77;5.70;;;12.10;99.90;;;;;;5100972;28;20508;-69
2021/11/11 01:05:56;;;;;;;9.93;5.77;;;12.10;99.90;;;;;;5099180;28;20940;-68
2021/11/11 01:08:29;;;;;;;8.87;6.00;;;12.10;99.90;;;;;;5100914;28;20450;-68
2021/11/11 01:11:01;;;;;;;9.23;6.13;;;12.10;99.90;;;;;;5091251;28;20454;-69
2021/11/11 01:13:32;;;;;;;6.77;5.90;;;12.00;99.90;;;;;;5096432;28;20811;-68
2021/11/11 01:16:03;;;;;;;7.60;6.87;;;11.90;99.90;;;;;;5102323;28;20450;-67
2021/11/11 01:18:36;;;;;;;8.50;6.57;;;11.70;99.90;;;;;;5099801;28;20806;-68
2021/11/11 01:21:07;;;;;;;7.70;6.87;;;11.70;99.90;;;;;;5111003;28;20806;-68
2021/11/11 01:23:39;;;;;;;7.70;6.97;;;11.60;99.90;;;;;;5111252;28;20457;-68
2021/11/11 01:26:10;;;;;;;8.93;6.77;;;11.60;99.90;;;;;;5100831;28;20464;-68
2021/11/11 01:28:41;;;;;;;9.53;7.27;;;11.50;99.90;;;;;;5091142;28;20647;-68
2021/11/11 01:31:11;;;;;;;10.93;6.80;;;11.40;99.90;;;;;;5101493;28;20459;-68
2021/11/11 01:33:45;;;;;;;7.63;6.73;;;11.20;99.90;;;;;;5111358;28;20524;-68
2021/11/11 01:36:16;;;;;;;7.83;6.20;;;11.20;99.90;;;;;;5111243;28;20918;-68
2021/11/11 01:38:46;;;;;;;8.70;7.93;;;11.10;99.90;;;;;;5112912;28;20445;-68
2021/11/11 01:41:17;;;;;;;7.90;6.70;;;11.00;99.90;;;;;;5102065;28;20450;-68
2021/11/11 01:43:48;;;;;;;8.73;6.43;;;11.00;99.90;;;;;;5112375;28;20453;-68
2021/11/11 01:46:19;;;;;;;8.50;7.40;;;11.00;99.90;;;;;;5099579;28;20951;-68
2021/11/11 01:48:52;;;;;;;8.23;7.43;;;11.00;99.90;;;;;;5091410;28;20828;-68
2021/11/11 01:51:24;;;;;;;7.90;6.80;;;11.10;99.90;;;;;;5090241;28;20457;-68
2021/11/11 01:53:55;;;;;;;12.57;7.77;;;11.10;99.90;;;;;;5091516;28;20864;-68
2021/11/11 01:56:26;;;;;;;8.80;6.20;;;11.20;99.90;;;;;;5090415;28;20739;-68
2021/11/11 01:58:57;;;;;;;6.73;6.07;;;11.10;99.90;;;;;;5090087;28;20488;-68
2021/11/11 02:01:32;;;;;;;8.97;6.17;;;11.10;99.90;;;;;;5090336;28;20533;-68
2021/11/11 02:04:05;;;;;;;7.10;5.83;;;11.10;99.90;;;;;;5090931;28;20470;-68
2021/11/11 02:06:36;;;;;;;7.07;6.23;;;11.10;99.90;;;;;;5094464;28;20471;-68
2021/11/11 02:09:07;;;;;;;6.90;5.90;;;11.10;99.90;;;;;;5092939;28;20526;-68
2021/11/11 02:11:38;;;;;;;5.40;4.83;;;11.10;99.90;;;;;;5094802;28;20445;-68
2021/11/11 02:14:09;;;;;;;7.40;5.20;;;11.10;99.90;;;;;;5102381;27;20944;-68
2021/11/11 02:16:40;;;;;;;9.20;4.90;;;11.10;99.90;;;;;;5095082;28;20569;-69
2021/11/11 02:19:15;;;;;;;7.33;5.20;;;11.10;99.90;;;;;;5096607;28;20462;-68
2021/11/11 02:21:53;;;;;;;8.20;5.60;;;11.10;99.90;;;;;;5110454;28;20459;-68
2021/11/11 02:24:24;;;;;;;5.17;4.77;;;11.10;99.90;;;;;;5108491;28;20808;-68
2021/11/11 02:26:55;;;;;;;7.07;5.40;;;11.10;99.90;;;;;;5091516;28;20446;-69
2021/11/11 02:29:27;;;;;;;6.13;4.63;;;11.10;99.90;;;;;;5096739;28;20911;-68
2021/11/11 02:31:58;;;;;;;8.33;5.57;;;11.10;99.90;;;;;;5112400;28;20464;-69
2021/11/11 02:34:28;;;;;;;5.10;4.70;;;11.10;99.90;;;;;;5110773;28;20477;-69
2021/11/11 02:37:02;;;;;;;7.23;5.23;;;11.10;99.90;;;;;;5101963;28;20874;-69
2021/11/11 02:39:34;;;;;;;5.37;4.87;;;11.10;99.90;;;;;;5091019;28;20454;-69
2021/11/11 02:42:06;;;;;;;5.80;5.20;;;11.10;99.90;;;;;;5098084;28;20445;-69
2021/11/11 02:44:43;;;;;;;5.53;4.80;;;11.20;99.90;;;;;;5110988;28;20469;-69
2021/11/11 02:47:13;;;;;;;7.77;5.63;;;11.10;99.90;;;;;;5097626;28;20970;-69
2021/11/11 02:49:44;;;;;;;7.63;4.83;;;11.10;99.90;;;;;;5097382;28;20956;-70
2021/11/11 02:52:18;;;;;;;6.20;5.60;;;11.10;99.90;;;;;;5111366;28;20773;-70
2021/11/11 02:54:49;;;;;;;6.20;5.37;;;11.10;99.90;;;;;;5104925;28;20546;-68
2021/11/11 02:57:23;;;;;;;6.10;5.10;;;11.20;99.90;;;;;;5099239;28;21018;-69
2021/11/11 02:59:56;;;;;;;6.30;4.83;;;11.20;99.90;;;;;;5090997;28;20446;-69
2021/11/11 03:02:29;;;;;;;7.27;5.37;;;11.10;99.90;;;;;;5101465;28;20514;-68
2021/11/11 03:05:01;;;;;;;8.60;5.40;;;11.20;99.90;;;;;;5096988;28;20531;-68
2021/11/11 03:07:33;;;;;;;7.27;5.50;;;11.20;99.90;;;;;;5097061;28;20814;-68
2021/11/11 03:10:05;;;;;;;5.43;4.93;;;11.20;99.90;;;;;;5105052;28;20445;-68
2021/11/11 03:12:36;;;;;;;4.83;4.43;;;11.20;99.90;;;;;;5101520;28;20465;-68
2021/11/11 03:15:08;;;;;;;5.60;5.00;;;11.20;99.90;;;;;;5110547;28;20530;-68
2021/11/11 03:17:40;;;;;;;7.73;5.67;;;11.30;99.90;;;;;;5094734;28;20454;-69
2021/11/11 03:20:13;;;;;;;10.00;5.63;;;11.30;99.90;;;;;;5088971;28;20459;-68
2021/11/11 03:22:46;;;;;;;6.87;6.07;;;11.30;99.90;;;;;;5090461;28;20788;-69
2021/11/11 03:25:19;;;;;;;6.80;6.00;;;11.20;99.90;;;;;;5095633;28;20523;-68
2021/11/11 03:27:50;;;;;;;8.53;6.10;;;11.20;99.90;;;;;;5088587;28;20798;-68
2021/11/11 03:30:23;;;;;;;6.70;6.03;;;11.20;99.90;;;;;;5099740;28;20450;-68
2021/11/11 03:32:54;;;;;;;6.67;5.90;;;11.30;99.90;;;;;;5101207;28;20545;-68
2021/11/11 03:35:25;;;;;;;6.60;5.83;;;11.30;99.90;;;;;;5092784;28;20481;-68
2021/11/11 03:38:02;;;;;;;8.10;6.33;;;11.30;99.90;;;;;;5094611;28;20634;-68
2021/11/11 03:40:36;;;;;;;6.50;5.67;;;11.30;99.90;;;;;;5092824;28;20857;-68
2021/11/11 03:43:08;;;;;;;9.03;6.20;;;11.20;99.90;;;;;;5108530;28;20975;-68
2021/11/11 03:45:39;;;;;;;8.40;6.00;;;11.10;99.90;;;;;;5108825;28;20981;-68
2021/11/11 03:48:10;;;;;;;8.83;6.53;;;11.10;99.90;;;;;;5097884;28;20483;-68
2021/11/11 03:50:41;;;;;;;8.73;7.17;;;11.20;99.90;;;;;;5091514;28;20450;-68
2021/11/11 03:53:14;;;;;;;10.00;6.37;;;11.20;99.90;;;;;;5098284;28;20802;-68
2021/11/11 03:55:45;;;;;;;6.47;5.77;;;11.30;99.90;;;;;;5105084;28;20489;-68
2021/11/11 03:58:17;;;;;;;7.60;5.70;;;11.30;99.90;;;;;;5093342;28;20454;-68
2021/11/11 04:00:48;;;;;;;7.90;6.57;;;11.40;99.90;;;;;;5092837;28;20562;-68
2021/11/11 04:03:19;;;;;;;8.23;6.70;;;11.40;99.90;;;;;;5110229;28;20581;-68
2021/11/11 04:05:50;;;;;;;9.60;6.10;;;11.40;99.90;;;;;;5100603;28;20563;-68
2021/11/11 04:08:22;;;;;;;6.10;5.50;;;11.40;99.90;;;;;;5100476;28;20461;-68
2021/11/11 04:10:53;;;;;;;6.93;6.23;;;11.30;99.90;;;;;;5102984;28;20454;-68
2021/11/11 04:13:24;;;;;;;8.13;6.00;;;11.40;99.90;;;;;;5100767;28;20758;-68
2021/11/11 04:15:55;;;;;;;6.27;5.67;;;11.30;99.90;;;;;;5113874;28;20853;-68
2021/11/11 04:18:26;;;;;;;9.23;6.50;;;11.30;99.90;;;;;;5115750;28;20446;-67
2021/11/11 04:20:57;;;;;;;8.47;6.60;;;11.30;99.90;;;;;;5099571;28;20458;-68
2021/11/11 04:23:29;;;;;;;6.87;5.93;;;11.30;99.90;;;;;;5110495;28;20570;-68
2021/11/11 04:26:06;;;;;;;8.47;5.80;;;11.30;99.90;;;;;;5105545;28;20518;-68
2021/11/11 04:28:42;;;;;;;6.30;5.57;;;11.40;99.90;;;;;;5092856;28;20548;-68
2021/11/11 04:31:19;;;;;;;8.80;5.80;;;11.40;99.90;;;;;;5102789;28;20449;-67
2021/11/11 04:33:52;;;;;;;6.60;5.90;;;11.40;99.90;;;;;;5100949;28;20500;-68
2021/11/11 04:36:45;;;;;;;6.87;6.13;;;11.40;99.90;;;;;;5103964;28;20490;-68
2021/11/11 04:39:35;;;;;;;7.27;5.87;;;11.40;99.90;;;;;;5098261;28;20466;-68
2021/11/11 04:42:20;;;;;;;6.37;5.50;;;11.40;99.90;;;;;;5108000;28;20502;-68
2021/11/11 04:45:01;;;;;;;6.47;5.63;;;11.40;99.90;;;;;;5099914;28;20810;-68
2021/11/11 04:47:48;;;;;;;6.70;6.10;;;11.40;99.90;;;;;;5104209;28;20450;-68
2021/11/11 05:01:43;;;;;;;13.10;6.90;;;11.50;99.90;;;;;;5140935;27;20444;-68
2021/11/11 05:04:14;;;;;;;6.53;5.80;;;11.50;99.90;;;;;;5148462;27;20467;-68
2021/11/11 05:06:45;;;;;;;6.90;5.03;;;11.40;99.90;;;;;;5147594;27;20444;-68
2021/11/11 05:09:16;;;;;;;6.67;5.40;;;11.40;99.90;;;;;;5148936;27;20452;-68
2021/11/11 05:11:49;;;;;;;7.50;5.70;;;11.40;99.90;;;;;;5150109;27;20964;-68
2021/11/11 05:14:20;;;;;;;5.90;5.30;;;11.40;99.90;;;;;;5149084;27;20484;-68
2021/11/11 05:16:51;;;;;;;7.83;5.23;;;11.40;99.90;;;;;;5146992;27;20456;-68
2021/11/11 05:19:22;;;;;;;6.43;5.70;;;11.40;99.90;;;;;;5148273;27;20456;-67
2021/11/11 05:21:52;;;;;;;6.23;5.37;;;11.30;99.90;;;;;;5135273;27;20455;-68
2021/11/11 05:24:23;;;;;;;6.97;6.20;;;11.30;99.90;;;;;;5146782;27;20452;-68
2021/11/11 05:26:56;;;;;;;8.50;6.00;;;11.40;99.90;;;;;;5148494;27;20827;-68
2021/11/11 05:29:27;;;;;;;6.87;6.20;;;11.50;99.90;;;;;;5146883;27;20452;-68
2021/11/11 05:31:58;;;;;;;7.40;6.10;;;11.50;99.90;;;;;;5134199;27;20452;-67
2021/11/11 05:34:29;;;;;;;7.90;5.83;;;11.40;99.90;;;;;;5147448;27;20487;-68
2021/11/11 05:37:00;;;;;;;9.27;5.50;;;11.30;99.90;;;;;;5143060;27;20456;-68
2021/11/11 05:39:30;;;;;;;10.13;5.87;;;11.20;99.90;;;;;;5140054;27;20444;-69
2021/11/11 05:42:03;;;;;;;11.10;6.20;;;11.00;99.90;;;;;;5146817;27;20459;-68
2021/11/11 05:44:34;;;;;;;7.80;6.13;;;10.80;99.90;;;;;;5140599;27;20474;-69
2021/11/11 05:47:05;;;;;;;7.70;6.83;;;10.80;99.90;;;;;;5146631;27;20451;-69
2021/11/11 05:49:36;;;;;;;8.60;6.30;;;10.70;99.90;;;;;;5145479;27;20521;-69
2021/11/11 05:52:08;;;;;;;8.37;6.13;;;10.60;99.90;;;;;;5146783;27;20819;-69
2021/11/11 05:54:39;;;;;;;9.00;6.65;;;10.60;99.90;;;;;;5147670;27;20483;-70
2021/11/11 05:57:12;;;;;;;7.07;6.37;;;10.60;99.90;;;;;;5143741;27;20245;-70
2021/11/11 05:59:43;;;;;;;8.53;5.73;;;10.60;99.90;;;;;;5147930;27;20454;-69
2021/11/11 06:02:14;;;;;;;7.97;7.17;;;10.50;99.90;;;;;;5146223;27;20547;-69
2021/11/11 06:04:46;;;;;;;8.90;7.07;;;10.50;99.90;;;;;;5147761;27;20545;-71
2021/11/11 06:07:17;;;;;;;8.17;7.37;;;10.50;99.90;;;;;;5132843;27;20450;-70
2021/11/11 06:09:48;;;;;;;10.53;7.60;;;10.40;99.90;;;;;;5129079;27;20850;-71
2021/11/11 06:12:20;;;;;;;10.82;7.32;;;10.40;99.90;;;;;;5131456;27;20544;-70
2021/11/11 06:14:51;;;;;;;8.03;7.13;;;10.40;99.90;;;;;;5133800;27;20561;-70
2021/11/11 06:17:22;;;;;;;9.00;7.37;;;10.50;99.90;;;;;;5132008;27;20452;-69
2021/11/11 06:19:53;;;;;;;9.87;7.00;;;10.40;99.90;;;;;;5132081;27;20803;-70
2021/11/11 06:22:24;;;;;;;8.63;7.40;;;10.40;99.90;;;;;;5133625;27;20992;-70
2021/11/11 06:24:55;;;;;;;12.32;7.55;;;10.40;99.90;;;;;;5131943;27;20445;-70
2021/11/11 06:27:27;;;;;;;9.30;8.10;;;10.40;99.90;;;;;;5131621;27;20222;-70
2021/11/11 06:29:58;;;;;;;9.82;6.95;;;10.40;99.90;;;;;;5133987;27;20452;-70
2021/11/11 06:32:31;;;;;;;9.90;7.20;;;10.40;99.90;;;;;;5124750;27;20207;-70
2021/11/11 06:35:22;;;;;;;8.93;7.30;;;10.30;99.90;;;;;;5131588;27;20223;-70
2021/11/11 06:37:53;;;;;;;10.32;7.05;;;10.40;99.90;;;;;;5133367;27;20452;-70
2021/11/11 06:40:24;;;;;;;8.20;7.40;;;10.30;99.90;;;;;;5131454;27;20298;-70
2021/11/11 06:42:56;;;;;;;9.80;8.40;;;10.30;99.90;;;;;;5133312;27;20966;-70
2021/11/11 06:45:28;;;;;;;12.10;7.97;;;10.30;99.90;;;;;;5128968;27;20512;-70
2021/11/11 06:47:59;;;;;;;8.10;7.27;;;10.30;99.90;;;;;;5126638;27;20456;-70
2021/11/11 06:50:30;;;;;;;12.67;7.90;;;10.40;99.90;;;;;;5131622;27;20460;-70
2021/11/11 06:53:08;;;;;;;9.52;8.05;;;10.30;99.90;;;;;;5130175;27;20946;-70
2021/11/11 06:55:39;;;;;;;9.23;7.70;;;10.30;99.90;;;;;;5131253;27;20239;-70
2021/11/11 06:58:13;;;;;;;9.73;8.03;;;10.30;99.90;;;;;;5131443;27;20457;-70
2021/11/11 07:00:44;;;;;;;9.93;7.90;;;10.30;99.90;;;;;;5131665;27;20457;-69
2021/11/11 07:03:16;;;;;;;10.00;8.17;;;10.30;99.90;;;;;;5134030;27;20456;-69
2021/11/11 07:05:47;;;;;;;8.80;7.60;;;10.30;99.90;;;;;;5132181;27;20806;-70
2021/11/11 07:08:18;;;;;;;10.70;7.97;;;10.30;99.90;;;;;;5131468;27;20457;-70
2021/11/11 07:10:52;;;;;;;11.90;9.13;;;10.40;99.90;;;;;;5131623;27;20471;-70
2021/11/11 07:13:24;;;;;;;9.53;6.93;;;10.40;99.90;;;;;;5132032;27;20517;-68
2021/11/11 07:15:55;;;;;;;8.93;7.30;;;10.40;99.90;;;;;;5131224;27;20826;-68
2021/11/11 07:18:26;;;;;;;8.43;7.60;;;10.40;99.90;;;;;;5130669;27;20210;-68
2021/11/11 07:20:57;;;;;;;12.27;7.90;;;10.40;99.90;;;;;;5131112;27;20290;-68
2021/11/11 07:23:31;;;;;;;9.53;8.23;;;10.40;99.90;;;;;;5115866;27;20440;-67
2021/11/11 07:26:02;;;;;;;7.90;7.20;;;10.30;99.90;;;;;;5130796;27;20444;-68
2021/11/11 07:28:34;;;;;;;10.37;7.60;;;10.30;99.90;;;;;;5130634;27;20447;-68
2021/11/11 07:31:05;;;;;;;8.33;7.20;;;10.30;99.90;;;;;;5127571;27;20459;-68
2021/11/11 07:33:36;;;;;;;8.43;7.63;;;10.30;99.90;;;;;;5131533;27;20537;-68
2021/11/11 07:36:07;;;;;;;8.33;7.63;;;10.30;99.90;;;;;;5125157;27;20689;-68
2021/11/11 07:38:38;;;;;;;8.37;7.50;;;10.30;99.90;;;;;;5132299;27;20933;-68
2021/11/11 07:41:09;;;;;;;9.57;8.65;;;10.30;99.90;;;;;;5130608;27;20459;-68
2021/11/11 07:43:42;;;;;;;10.97;8.20;;;10.30;99.90;;;;;;5130708;27;20207;-68
2021/11/11 07:46:14;;;;;;;9.00;7.10;;;10.30;99.90;;;;;;5130120;27;20464;-68
2021/11/11 07:48:45;;;;;;;8.63;6.60;;;10.30;99.90;;;;;;5130417;27;20308;-68
2021/11/11 07:51:16;;;;;;;8.68;7.50;;;10.20;99.90;;;;;;5129217;27;20966;-68
2021/11/11 07:53:47;;;;;;;8.63;7.10;;;10.10;99.90;;;;;;5126922;27;20224;-68
2021/11/11 07:56:17;;;;;;;9.50;8.27;;;10.10;99.90;;;;;;5123294;27;20480;-68
2021/11/11 07:58:50;;;;;;;8.87;8.00;;;10.10;99.90;;;;;;5116918;27;20210;-67
2021/11/11 08:01:21;;;;;;;8.17;7.47;;;10.20;99.90;;;;;;5131049;27;20463;-68
2021/11/11 08:03:52;;;;;;;9.45;7.32;;;10.10;99.90;;;;;;5114037;27;20449;-68
2021/11/11 08:06:23;;;;;;;11.20;7.67;;;10.20;99.90;;;;;;5118530;27;20211;-67
2021/11/11 08:08:54;;;;;;;10.00;8.27;;;10.20;99.90;;;;;;5121727;27;20469;-69
2021/11/11 08:11:25;;;;;;;8.90;8.05;;;10.20;99.90;;;;;;5131815;27;20954;-68
2021/11/11 08:13:57;;;;;;;11.47;8.57;;;10.20;99.90;;;;;;5126622;27;20217;-67
2021/11/11 08:16:28;;;;;;;9.87;8.93;;;10.30;99.90;;;;;;5120152;27;21009;-67
2021/11/11 08:19:00;;;;;;;10.45;9.35;;;10.30;99.90;;;;;;5122441;27;20449;-67
2021/11/11 08:21:31;;;;;;;11.80;8.50;;;10.30;99.90;;;;;;5121708;27;20644;-67
2021/11/11 08:24:02;;;;;;;10.88;8.13;;;10.30;99.90;;;;;;5119105;27;20484;-67
2021/11/11 08:26:33;;;;;;;10.70;8.20;;;10.30;99.90;;;;;;5113591;27;20300;-67
2021/11/11 08:29:05;;;;;;;8.30;7.60;;;10.30;99.90;;;;;;5114161;27;20340;-67
2021/11/11 08:31:36;;;;;;;8.70;7.30;;;10.30;99.90;;;;;;5113784;27;20977;-67
2021/11/11 08:34:07;;;;;;;11.07;7.40;;;10.30;99.90;;;;;;5130624;27;20474;-68
2021/11/11 08:36:38;;;;;;;9.30;8.00;;;10.40;99.90;;;;;;5118714;27;20481;-67
2021/11/11 08:39:09;;;;;;;8.40;7.50;;;10.40;99.90;;;;;;5131169;27;20453;-67
2021/11/11 08:41:40;;;;;;;8.77;7.85;;;10.40;99.90;;;;;;5117392;27;20535;-67
2021/11/11 08:44:12;;;;;;;8.40;7.60;;;10.50;99.90;;;;;;5130789;27;20550;-67
2021/11/11 08:46:43;;;;;;;9.20;8.30;;;10.50;99.90;;;;;;5115638;27;20946;-68
2021/11/11 08:49:14;;;;;;;9.97;8.13;;;10.60;99.90;;;;;;5109892;28;20868;-68
2021/11/11 08:51:48;;;;;;;9.60;8.70;;;10.60;99.90;;;;;;5109152;28;20449;-68
2021/11/11 08:54:20;;;;;;;10.70;8.52;;;10.60;99.90;;;;;;5120978;28;20476;-67
2021/11/11 08:56:53;;;;;;;9.55;8.50;;;10.60;99.90;;;;;;5114954;28;20228;-68
2021/11/11 08:59:26;;;;;;;10.00;7.73;;;10.60;99.90;;;;;;5111236;28;20208;-68
2021/11/11 09:01:57;;;;;;;11.80;9.10;;;10.60;99.90;;;;;;5129595;27;20858;-68
2021/11/11 09:04:27;;;;;;;8.70;7.77;;;10.60;99.90;;;;;;5121518;28;20494;-68
2021/11/11 09:07:00;;;;;;;9.13;8.23;;;10.70;99.90;;;;;;5116950;28;20447;-68
2021/11/11 09:09:31;;;;;;;9.83;8.87;;;10.60;99.90;;;;;;5112594;28;20545;-67
2021/11/11 09:12:03;;;;;;;8.70;7.93;;;10.70;99.90;;;;;;5118572;28;20449;-69
2021/11/11 09:14:35;;;;;;;8.40;7.37;;;10.70;99.90;;;;;;5128270;27;20482;-68
2021/11/11 09:17:07;;;;;;;9.10;8.20;;;10.70;99.90;;;;;;5110172;28;20604;-69
2021/11/11 09:19:38;;;;;;;9.57;7.53;;;10.70;99.90;;;;;;5119209;28;20460;-69
2021/11/11 09:22:09;;;;;;;10.30;7.43;;;10.70;99.90;;;;;;5119078;28;20608;-69
2021/11/11 09:24:40;;;;;;;10.07;8.63;;;10.70;99.90;;;;;;5126763;27;20452;-69
2021/11/11 09:27:11;;;;;;;17.03;9.80;;;10.70;99.90;;;;;;5119522;28;20445;-69
2021/11/11 09:29:44;;;;;;;9.57;8.53;;;10.70;99.90;;;;;;5115385;28;20471;-69
2021/11/11 09:32:15;;;;;;;10.40;8.47;;;10.70;99.90;;;;;;5119349;27;20927;-69
2021/11/11 09:34:45;;;;;;;10.47;7.50;;;10.80;99.90;;;;;;5108690;28;20468;-69
2021/11/11 09:37:16;;;;;;;8.43;7.63;;;10.70;99.90;;;;;;5110392;28;20488;-69
2021/11/11 09:39:47;;;;;;;8.33;7.63;;;10.80;99.90;;;;;;5114846;28;20453;-69
2021/11/11 09:42:19;;;;;;;9.67;8.13;;;10.70;99.90;;;;;;5133713;27;20449;-69
2021/11/11 09:44:53;;;;;;;7.90;7.27;;;10.70;99.90;;;;;;5120639;27;20456;-70
2021/11/11 09:47:25;;;;;;;8.23;7.53;;;10.70;99.90;;;;;;5133422;27;20453;-68
2021/11/11 09:49:56;;;;;;;8.10;7.20;;;10.80;99.90;;;;;;5113660;27;20550;-69
2021/11/11 09:52:27;;;;;;;8.70;7.88;;;10.80;99.90;;;;;;5119701;27;20455;-69
2021/11/11 10:00:38;;;;;;;8.30;7.20;;;10.80;99.90;;;;;;5122000;27;20459;-70
2021/11/11 10:03:09;;;;;;;7.40;6.80;;;10.80;99.90;;;;;;5137266;27;20448;-70
2021/11/11 10:05:41;;;;;;;7.77;7.00;;;10.80;99.90;;;;;;5128931;27;20449;-73
2021/11/11 10:08:30;;;;;;;7.83;7.03;;;10.90;99.90;;;;;;5115085;27;20818;-71
2021/11/11 10:11:01;;;;;;;7.90;6.97;;;10.90;99.90;;;;;;5128960;27;20485;-70
2021/11/11 10:13:33;;;;;;;7.97;6.90;;;10.80;99.90;;;;;;5125748;27;20440;-72
2021/11/11 10:16:09;;;;;;;8.10;7.20;;;10.90;99.90;;;;;;5132391;27;20444;-70
2021/11/11 10:18:44;;;;;;;9.33;7.47;;;10.80;99.90;;;;;;5117316;27;20567;-70
2021/11/11 10:21:31;;;;;;;12.27;6.87;;;10.90;99.90;;;;;;5132124;27;20463;-74
2021/11/11 10:24:22;;;;;;;7.60;6.10;;;10.90;99.90;;;;;;5125864;27;20963;-69
2021/11/11 10:26:57;;;;;;;7.27;6.57;;;10.90;99.90;;;;;;5120373;27;20446;-73
2021/11/11 10:29:36;;;;;;;7.40;6.67;;;10.90;99.90;;;;;;5121667;27;20453;-69
2021/11/11 10:32:12;;;;;;;7.80;6.70;;;11.00;99.90;;;;;;5120297;27;20452;-69
2021/11/11 10:34:51;;;;;;;6.73;6.07;;;11.00;99.90;;;;;;5130507;27;20823;-72
2021/11/11 10:37:23;;;;;;;7.13;6.53;;;11.00;99.90;;;;;;5111416;27;20477;-70
2021/11/11 10:40:01;;;;;;;8.43;5.93;;;10.90;99.90;;;;;;5112951;28;20456;-70
2021/11/11 10:42:34;;;;;;;7.23;6.43;;;11.00;99.90;;;;;;5125199;27;20441;-71
2021/11/11 10:45:08;;;;;;;7.27;6.63;;;11.00;99.90;;;;;;5130963;27;20969;-71
2021/11/11 10:47:44;;;;;;;8.40;6.70;;;11.00;99.90;;;;;;5128043;27;21012;-68
2021/11/11 10:50:18;;;;;;;6.43;5.93;;;11.00;99.90;;;;;;5116559;27;20452;-69
2021/11/11 10:52:50;;;;;;;6.27;5.57;;;10.90;99.90;;;;;;5129820;27;20449;-69
2021/11/11 10:55:26;;;;;;;8.00;6.53;;;10.90;99.90;;;;;;5115598;27;20486;-71
2021/11/11 10:58:04;;;;;;;8.03;6.30;;;11.00;99.90;;;;;;5110814;27;20492;-69
2021/11/11 11:00:49;;;;;;;7.53;6.57;;;10.90;99.90;;;;;;5110832;28;20450;-68
2021/11/11 11:03:24;;;;;;;5.90;5.33;;;10.90;99.90;;;;;;5120115;27;20539;-69
2021/11/11 11:05:57;;;;;;;7.10;5.83;;;10.90;99.90;;;;;;5118865;27;20819;-72
2021/11/11 11:08:29;;;;;;;6.43;5.90;;;10.90;99.90;;;;;;5120604;27;21026;-68
2021/11/11 11:11:02;;;;;;;8.10;6.93;;;10.80;99.90;;;;;;5118630;27;20464;-73
2021/11/11 11:13:36;;;;;;;6.43;5.83;;;10.90;99.90;;;;;;5112413;28;20445;-72
2021/11/11 11:16:08;;;;;;;7.10;6.40;;;10.90;99.90;;;;;;5110548;28;20479;-69
2021/11/11 11:18:44;;;;;;;5.80;5.40;;;11.00;99.90;;;;;;5111822;28;20866;-69
2021/11/11 11:21:17;;;;;;;6.97;6.10;;;11.00;99.90;;;;;;5111761;27;20519;-69
2021/11/11 11:23:50;;;;;;;6.20;5.70;;;11.00;99.90;;;;;;5130960;27;20847;-69
2021/11/11 11:26:22;;;;;;;8.93;5.97;;;11.00;99.90;;;;;;5120369;27;20501;-68
2021/11/11 11:29:08;;;;;;;7.17;6.47;;;11.00;99.90;;;;;;5130115;27;20460;-72
2021/11/11 11:31:46;;;;;;;6.10;5.50;;;11.10;99.90;;;;;;5119528;27;20825;-68
2021/11/11 11:34:22;;;;;;;7.40;6.80;;;11.00;99.90;;;;;;5121350;27;20449;-68
2021/11/11 11:36:56;;;;;;;6.43;5.40;;;11.10;99.90;;;;;;5121384;27;20455;-68
2021/11/11 11:39:31;;;;;;;6.23;5.63;;;11.10;99.90;;;;;;5131951;27;20484;-72
2021/11/11 11:42:05;;;;;;;9.03;6.73;;;11.00;99.90;;;;;;5113211;27;20486;-69
2021/11/11 11:44:42;;;;;;;6.90;6.40;;;11.10;99.90;;;;;;5115445;28;20461;-69
2021/11/11 11:47:18;;;;;;;6.97;6.33;;;11.10;99.90;;;;;;5120828;27;20455;-68
2021/11/11 11:49:54;;;;;;;6.50;5.97;;;11.10;99.90;;;;;;5130406;27;20464;-68
2021/11/11 11:52:27;;;;;;;7.13;6.40;;;11.10;99.90;;;;;;5120475;27;20472;-68
2021/11/11 11:55:04;;;;;;;7.07;6.37;;;11.10;99.90;;;;;;5120616;27;20477;-69
2021/11/11 11:57:45;;;;;;;8.33;7.10;;;11.20;99.90;;;;;;5114097;27;20959;-68
2021/11/11 12:00:35;;;;;;;8.03;7.23;;;11.20;99.90;;;;;;5130007;27;20460;-67
2021/11/11 12:03:25;;;;;;;10.63;7.00;;;11.20;99.90;;;;;;5118973;27;20455;-71
2021/11/11 12:06:26;;;;;;;7.80;7.10;;;11.20;99.90;;;;;;5117528;27;20489;-75
2021/11/11 12:14:52;;;;;;;10.53;7.73;;;11.20;99.90;;;;;;5117012;27;20475;-71
2021/11/11 12:40:32;;;;;;;7.83;7.17;;;11.30;99.90;;;;;;5125968;27;20472;-68
2021/11/11 12:43:16;;;;;;;7.00;6.20;;;11.40;99.90;;;;;;5132649;27;20451;-67
2021/11/11 12:45:47;;;;;;;7.90;6.97;;;11.40;99.90;;;;;;5125998;27;20460;-67
2021/11/11 12:48:24;;;;;;;8.33;7.53;;;11.30;99.90;;;;;;5121656;27;20449;-67
2021/11/11 12:51:03;;;;;;;6.37;5.77;;;11.50;99.90;;;;;;5127613;27;20470;-68
2021/11/11 12:53:46;;;;;;;7.77;6.97;;;11.50;99.90;;;;;;5124757;27;20541;-69
2021/11/11 12:56:39;;;;;;;10.27;7.90;;;11.50;99.90;;;;;;5117667;28;20444;-68
2021/11/11 12:59:12;;;;;;;8.13;6.53;;;11.60;99.90;;;;;;5117525;28;20487;-71
2021/11/11 13:02:04;;;;;;;7.90;7.10;;;11.60;99.90;;;;;;5117975;28;20457;-69
2021/11/11 13:04:58;;;;;;;7.60;6.90;;;11.60;99.90;;;;;;5122693;28;20539;-73
2021/11/11 13:07:32;;;;;;;8.93;8.10;;;11.70;99.90;;;;;;5116248;27;20997;-73
2021/11/11 13:10:12;;;;;;;8.87;7.97;;;11.80;99.90;;;;;;5108753;28;20449;-68
2021/11/11 13:13:05;;;;;;;7.50;6.80;;;11.70;99.90;;;;;;5108681;28;20457;-69
2021/11/11 13:15:44;;;;;;;8.87;8.07;;;11.70;99.90;;;;;;5111336;28;20457;-68
2021/11/11 13:18:44;;;;;;;8.83;7.93;;;11.90;99.90;;;;;;5116300;27;20476;-69
2021/11/11 13:21:20;;;;;;;8.23;7.43;;;11.90;99.90;;;;;;5121737;27;20941;-68
2021/11/11 13:24:20;;;;;;;8.40;7.43;;;11.80;99.90;;;;;;5122704;27;20463;-68
2021/11/11 13:54:34;;;;;;;2.73;2.53;;;12.50;99.90;;;;;;5120618;27;20464;-70
2021/11/11 15:17:11;;;;;;;1.60;1.50;;;13.60;99.90;;;;;;5118502;27;20452;-68
2021/11/11 16:00:11;;;;;;;1.60;1.17;;;13.90;99.90;;;;;;5112874;27;20488;-72
2021/11/11 16:03:00;;;;;;;0.90;0.90;;;14.00;99.90;;;;;;5131092;27;20973;-69
2021/11/11 16:22:31;;;;;;;1.10;1.10;;;14.20;99.90;;;;;;5108795;27;20514;-74
2021/11/11 16:25:08;;;;;;;1.97;1.20;;;14.20;99.90;;;;;;5119575;27;20452;-70
2021/11/11 16:27:40;;;;;;;1.20;1.10;;;14.20;99.90;;;;;;5111681;28;20923;-68
2021/11/11 16:30:14;;;;;;;0.90;0.90;;;14.30;99.90;;;;;;5121464;27;20477;-68
2021/11/11 16:32:45;;;;;;;1.23;1.13;;;14.30;99.90;;;;;;5133128;27;20491;-67
2021/11/11 16:35:19;;;;;;;1.00;1.00;;;14.30;99.90;;;;;;5117346;27;20808;-68
2021/11/11 16:37:50;;;;;;;1.63;1.40;;;14.30;99.90;;;;;;5125673;27;20456;-75
2021/11/11 16:40:25;;;;;;;1.33;1.27;;;14.40;99.90;;;;;;5116930;27;20489;-70
2021/11/11 16:42:57;;;;;;;1.27;1.20;;;14.40;99.90;;;;;;5110624;28;20449;-71
2021/11/11 16:45:28;;;;;;;0.90;0.90;;;14.40;99.90;;;;;;5117024;27;20458;-68
2021/11/11 16:47:59;;;;;;;1.20;1.20;;;14.30;99.90;;;;;;5119154;27;20845;-70